createdAt,value
2019-05-15T00:02:13.240Z,51.50
2019-05-15T00:04:45.296Z,51.60
2019-05-15T00:07:14.893Z,51.80
2019-05-15T00:09:45.086Z,51.70
2019-05-15T00:12:14.703Z,51.70
2019-05-15T00:14:45.775Z,51.80
2019-05-15T00:17:16.025Z,51.80
2019-05-15T00:19:45.641Z,52.20
2019-05-15T00:22:15.276Z,52.10
2019-05-15T00:24:44.928Z,52.20
2019-05-15T00:27:14.593Z,52.30
2019-05-15T00:29:44.204Z,53.20
2019-05-15T00:32:13.867Z,53.20
2019-05-15T00:34:43.475Z,53.60
2019-05-15T00:37:25.682Z,53.80
2019-05-15T00:40:14.381Z,54.40
2019-05-15T00:42:43.153Z,54.10
2019-05-15T00:45:12.514Z,54.20
2019-05-15T00:47:41.573Z,54.50
2019-05-15T00:50:11.587Z,53.90
2019-05-15T00:52:41.200Z,53.40
2019-05-15T00:55:11.122Z,53.20
2019-05-15T00:57:40.177Z,53.40
2019-05-15T01:00:09.922Z,53.30
2019-05-15T01:02:39.425Z,53.40
2019-05-15T01:05:08.794Z,53.80
2019-05-15T01:07:39.295Z,54.10
2019-05-15T01:10:10.093Z,54.60
2019-05-15T01:12:39.198Z,55.20
2019-05-15T01:15:09.428Z,54.60
2019-05-15T01:17:39.360Z,54.10
2019-05-15T01:20:08.903Z,54.60
2019-05-15T01:22:39.433Z,54.90
2019-05-15T01:25:09.003Z,55.70
2019-05-15T01:27:38.864Z,56.50
2019-05-15T01:30:09.350Z,57.70
2019-05-15T01:32:39.784Z,57.40
2019-05-15T01:35:09.704Z,57.30
2019-05-15T01:37:39.171Z,57.20
2019-05-15T01:40:09.236Z,57.50
2019-05-15T01:42:38.975Z,57.10
2019-05-15T01:45:09.287Z,56.90
2019-05-15T01:47:38.977Z,57.50
2019-05-15T01:50:09.235Z,57.90
2019-05-15T01:52:39.233Z,58.10
2019-05-15T01:55:09.343Z,58.00
2019-05-15T01:57:38.761Z,57.40
2019-05-15T02:00:11.579Z,57.40
2019-05-15T02:02:40.727Z,57.50
2019-05-15T02:05:10.516Z,57.80
2019-05-15T02:07:39.854Z,58.10
2019-05-15T02:10:09.534Z,57.90
2019-05-15T02:12:39.209Z,57.50
2019-05-15T02:15:09.491Z,58.00
2019-05-15T02:17:39.546Z,57.70
2019-05-15T02:20:09.198Z,57.70
2019-05-15T02:22:42.282Z,57.80
2019-05-15T02:25:09.384Z,57.90
2019-05-15T02:27:39.218Z,57.80
2019-05-15T02:30:22.534Z,58.00
2019-05-15T02:32:40.184Z,58.10
2019-05-15T02:35:10.226Z,58.20
2019-05-15T02:37:41.139Z,59.00
2019-05-15T02:40:10.720Z,58.50
2019-05-15T02:42:40.608Z,58.50
2019-05-15T02:45:10.748Z,58.50
2019-05-15T02:47:40.113Z,58.50
2019-05-15T02:50:10.611Z,59.10
2019-05-15T02:52:44.985Z,58.90
2019-05-15T02:55:10.783Z,59.30
2019-05-15T02:57:39.794Z,59.20
2019-05-15T03:00:10.950Z,59.20
2019-05-15T03:02:41.155Z,59.60
2019-05-15T03:05:11.516Z,59.70
2019-05-15T03:07:40.854Z,60.00
2019-05-15T03:10:10.545Z,59.90
2019-05-15T03:12:40.708Z,60.20
2019-05-15T03:15:10.356Z,60.50
2019-05-15T03:17:41.037Z,60.30
2019-05-15T03:20:11.137Z,60.40
2019-05-15T03:22:40.695Z,60.50
2019-05-15T03:25:11.248Z,61.10
2019-05-15T03:27:40.134Z,60.70
2019-05-15T03:30:13.187Z,60.70
2019-05-15T03:32:51.801Z,60.70
2019-05-15T03:35:14.523Z,60.50
2019-05-15T03:37:41.240Z,60.30
2019-05-15T03:40:11.003Z,60.30
2019-05-15T03:42:40.298Z,60.50
2019-05-15T03:45:10.302Z,60.70
2019-05-15T03:47:40.356Z,61.30
2019-05-15T03:50:10.455Z,61.90
2019-05-15T03:52:39.838Z,62.30
2019-05-15T03:55:10.879Z,62.10
2019-05-15T03:57:40.504Z,62.70
2019-05-15T04:00:10.317Z,63.50
2019-05-15T04:02:39.811Z,63.10
2019-05-15T04:05:11.826Z,62.50
2019-05-15T04:07:40.345Z,62.20
2019-05-15T04:10:10.379Z,61.50
2019-05-15T04:12:40.749Z,61.50
2019-05-15T04:15:10.970Z,61.70
2019-05-15T04:17:40.601Z,62.10
2019-05-15T04:20:11.652Z,62.00
2019-05-15T04:22:40.699Z,61.80
2019-05-15T04:25:10.465Z,62.00
2019-05-15T04:27:42.875Z,61.70
2019-05-15T04:30:12.253Z,61.70
2019-05-15T04:32:41.088Z,62.20
2019-05-15T04:35:10.267Z,62.40
2019-05-15T04:37:40.916Z,61.70
2019-05-15T04:40:12.463Z,61.30
2019-05-15T04:42:41.212Z,60.40
2019-05-15T04:45:11.324Z,60.90
2019-05-15T04:47:40.356Z,60.80
2019-05-15T04:50:10.312Z,61.50
2019-05-15T04:52:43.155Z,61.90
2019-05-15T04:55:10.661Z,62.10
2019-05-15T04:57:40.670Z,61.80
2019-05-15T05:00:10.533Z,61.50
2019-05-15T05:02:40.419Z,61.60
2019-05-15T05:05:10.556Z,62.40
2019-05-15T05:07:39.961Z,61.90
2019-05-15T05:10:10.056Z,61.60
2019-05-15T05:12:41.850Z,61.90
2019-05-15T05:15:10.445Z,61.70
2019-05-15T05:17:39.560Z,61.90
2019-05-15T05:20:08.532Z,61.90
2019-05-15T05:22:39.195Z,61.40
2019-05-15T05:25:08.978Z,61.20
2019-05-15T05:27:38.586Z,61.20
2019-05-15T05:30:09.015Z,61.20
2019-05-15T05:32:38.911Z,60.40
2019-05-15T05:35:08.853Z,60.00
2019-05-15T05:37:38.972Z,59.60
2019-05-15T05:40:09.445Z,59.60
2019-05-15T05:42:39.136Z,59.40
2019-05-15T05:45:09.477Z,59.50
2019-05-15T05:47:38.559Z,59.60
2019-05-15T05:50:08.621Z,59.30
2019-05-15T05:52:39.038Z,59.10
2019-05-15T05:55:09.350Z,58.60
2019-05-15T05:57:38.477Z,59.20
2019-05-15T06:00:09.246Z,60.00
2019-05-15T06:02:46.921Z,59.20
2019-05-15T06:05:09.015Z,58.80
2019-05-15T06:07:38.714Z,58.80
2019-05-15T06:10:08.846Z,58.60
2019-05-15T06:12:38.966Z,58.70
2019-05-15T06:15:10.748Z,58.30
2019-05-15T06:17:39.626Z,58.20
2019-05-15T06:20:08.875Z,58.10
2019-05-15T06:22:38.690Z,58.00
2019-05-15T06:25:11.140Z,58.40
2019-05-15T06:27:39.229Z,57.80
2019-05-15T06:30:10.998Z,57.40
2019-05-15T06:32:40.110Z,57.50
2019-05-15T06:35:09.544Z,57.60
2019-05-15T06:37:39.532Z,57.10
2019-05-15T06:40:09.172Z,57.20
2019-05-15T06:42:39.235Z,57.10
2019-05-15T06:45:08.688Z,57.20
2019-05-15T06:47:39.500Z,57.20
2019-05-15T06:50:09.398Z,56.50
2019-05-15T06:52:38.258Z,55.50
2019-05-15T06:55:09.050Z,54.90
2019-05-15T06:57:39.763Z,55.00
2019-05-15T07:00:10.141Z,54.80
2019-05-15T07:02:38.889Z,55.00
2019-05-15T07:05:08.281Z,55.20
2019-05-15T07:07:38.664Z,55.50
2019-05-15T07:10:09.241Z,54.60
2019-05-15T07:12:39.190Z,55.00
2019-05-15T07:15:09.369Z,54.00
2019-05-15T07:17:39.371Z,54.00
2019-05-15T07:20:10.319Z,52.40
2019-05-15T07:22:39.415Z,52.50
2019-05-15T07:25:09.513Z,53.20
2019-05-15T07:27:38.986Z,53.00
2019-05-15T07:30:12.202Z,52.70
2019-05-15T07:32:40.605Z,52.90
2019-05-15T07:35:11.290Z,53.10
2019-05-15T07:37:40.097Z,52.70
2019-05-15T07:40:10.510Z,52.10
2019-05-15T07:42:39.291Z,51.40
2019-05-15T07:45:09.878Z,52.30
2019-05-15T07:47:38.982Z,52.60
2019-05-15T07:50:09.066Z,53.20
2019-05-15T07:52:39.940Z,54.00
2019-05-15T07:55:09.375Z,53.50
2019-05-15T07:57:39.309Z,53.90
2019-05-15T08:00:14.461Z,53.70
2019-05-15T08:02:43.282Z,52.90
2019-05-15T08:05:12.764Z,53.10
2019-05-15T08:07:41.466Z,54.00
2019-05-15T08:10:11.032Z,54.40
2019-05-15T08:12:40.709Z,54.40
2019-05-15T08:15:12.176Z,53.90
2019-05-15T08:20:13.561Z,49.90
2019-05-15T08:22:45.773Z,49.80
2019-05-15T08:25:30.165Z,51.20
2019-05-15T08:26:05.637Z,53.60
2019-05-15T08:27:48.277Z,50.80
2019-05-15T08:30:18.379Z,50.50
2019-05-15T08:32:51.015Z,48.50
2019-05-15T08:35:19.189Z,49.10
2019-05-15T08:37:49.196Z,49.50
2019-05-15T08:40:18.342Z,48.20
2019-05-15T08:42:57.484Z,46.80
2019-05-15T08:45:18.901Z,44.30
2019-05-15T08:47:49.262Z,43.60
2019-05-15T08:50:20.205Z,43.30
2019-05-15T08:52:48.934Z,42.10
2019-05-15T08:55:20.037Z,40.90
2019-05-15T08:57:55.716Z,40.50
2019-05-15T09:00:19.228Z,40.20
2019-05-15T09:02:48.834Z,40.90
2019-05-15T09:05:18.791Z,41.80
2019-05-15T09:07:48.724Z,42.10
2019-05-15T09:10:18.401Z,40.50
2019-05-15T09:12:50.194Z,39.20
2019-05-15T09:15:18.583Z,39.10
2019-05-15T09:17:48.781Z,38.60
2019-05-15T09:20:19.671Z,37.50
2019-05-15T09:22:49.129Z,38.50
2019-05-15T09:25:19.285Z,37.70
2019-05-15T09:27:48.952Z,37.60
2019-05-15T09:30:18.371Z,39.20
2019-05-15T09:32:48.351Z,40.30
2019-05-15T09:35:21.405Z,41.40
2019-05-15T09:37:50.524Z,40.20
2019-05-15T09:40:19.628Z,40.20
2019-05-15T09:42:48.848Z,40.70
2019-05-15T09:45:18.657Z,39.90
2019-05-15T09:47:48.311Z,39.40
2019-05-15T09:50:19.311Z,39.80
2019-05-15T09:52:50.173Z,39.80
2019-05-15T09:55:19.501Z,39.60
2019-05-15T09:57:49.199Z,40.00
2019-05-15T10:00:19.167Z,40.70
2019-05-15T10:02:48.607Z,40.60
2019-05-15T10:05:19.937Z,39.60
2019-05-15T10:07:48.646Z,38.80
2019-05-15T10:10:19.255Z,39.20
2019-05-15T10:12:49.450Z,38.80
2019-05-15T10:15:20.502Z,38.00
2019-05-15T10:17:51.212Z,37.40
2019-05-15T10:20:20.526Z,37.80
2019-05-15T10:22:49.257Z,38.20
2019-05-15T10:25:18.979Z,38.10
2019-05-15T10:27:48.782Z,38.20
2019-05-15T10:30:19.034Z,38.00
2019-05-15T10:32:48.729Z,37.50
2019-05-15T10:35:25.720Z,37.40
2019-05-15T10:37:48.861Z,36.50
2019-05-15T10:40:20.411Z,36.40
2019-05-15T10:42:49.672Z,36.60
2019-05-15T10:45:19.392Z,37.10
2019-05-15T10:47:49.575Z,36.90
2019-05-15T10:50:19.252Z,35.40
2019-05-15T10:52:48.919Z,34.50
2019-05-15T10:55:19.038Z,34.70
2019-05-15T10:57:48.473Z,35.40
2019-05-15T11:00:19.450Z,34.90
2019-05-15T11:02:49.005Z,34.00
2019-05-15T11:05:18.461Z,34.20
2019-05-15T11:07:48.205Z,35.20
2019-05-15T11:10:18.585Z,35.80
2019-05-15T11:12:47.544Z,36.60
2019-05-15T11:15:18.386Z,36.40
2019-05-15T11:17:49.256Z,34.70
2019-05-15T11:20:18.966Z,34.60
2019-05-15T11:22:49.983Z,35.00
2019-05-15T11:25:18.351Z,34.60
2019-05-15T11:27:48.363Z,35.40
2019-05-15T11:30:19.210Z,35.50
2019-05-15T11:32:48.711Z,35.60
2019-05-15T11:35:18.876Z,36.30
2019-05-15T11:37:56.088Z,37.10
2019-05-15T11:40:18.985Z,35.70
2019-05-15T11:42:48.719Z,36.00
2019-05-15T11:45:18.737Z,34.90
2019-05-15T11:47:48.275Z,34.30
2019-05-15T11:50:20.606Z,34.50
2019-05-15T11:53:08.707Z,34.00
2019-05-15T11:55:38.730Z,34.10
2019-05-15T11:58:09.271Z,34.10
2019-05-15T12:00:38.509Z,34.60
2019-05-15T12:03:09.019Z,34.20
2019-05-15T12:05:38.771Z,33.60
2019-05-15T12:08:09.067Z,33.10
2019-05-15T12:10:38.907Z,32.40
2019-05-15T12:13:09.755Z,32.40
2019-05-15T12:15:38.789Z,32.50
2019-05-15T12:18:08.921Z,31.60
2019-05-15T12:20:38.921Z,31.60
2019-05-15T12:23:08.918Z,31.70
2019-05-15T12:25:39.462Z,31.40
2019-05-15T12:28:09.700Z,31.80
2019-05-15T12:30:40.287Z,32.90
2019-05-15T12:33:09.927Z,32.00
2019-05-15T12:35:40.016Z,31.50
2019-05-15T12:38:10.338Z,30.60
2019-05-15T13:00:42.716Z,29.50
2019-05-15T13:03:11.378Z,28.60
2019-05-15T13:05:40.235Z,28.20
2019-05-15T13:08:08.924Z,28.00
2019-05-15T13:10:38.590Z,27.80
2019-05-15T13:13:09.509Z,27.30
2019-05-15T13:15:41.067Z,27.30
2019-05-15T13:18:14.214Z,27.00
2019-05-15T13:20:41.238Z,26.50
2019-05-15T13:23:10.026Z,26.40
2019-05-15T13:25:39.641Z,26.20
2019-05-15T13:28:09.172Z,26.00
2019-05-15T13:30:41.282Z,26.30
2019-05-15T13:33:10.034Z,25.80
2019-05-15T13:35:39.242Z,25.80
2019-05-15T13:38:09.948Z,25.80
2019-05-15T13:40:42.162Z,25.10
2019-05-15T13:43:08.786Z,25.20
2019-05-15T13:45:38.665Z,25.30
2019-05-15T13:48:08.801Z,25.50
2019-05-15T13:50:41.179Z,25.40
2019-05-15T13:53:11.048Z,24.90
2019-05-15T13:55:42.711Z,24.60
2019-05-15T13:58:10.602Z,24.60
2019-05-15T14:00:39.810Z,24.60
2019-05-15T14:03:09.216Z,24.10
2019-05-15T14:05:38.585Z,25.10
2019-05-15T14:08:07.664Z,25.00
2019-05-15T14:10:38.627Z,24.50
2019-05-15T14:13:06.997Z,24.10
2019-05-15T14:15:38.020Z,24.70
2019-05-15T14:18:08.392Z,24.50
2019-05-15T14:20:38.670Z,24.00
2019-05-15T14:23:08.620Z,23.50
2019-05-15T14:25:38.895Z,23.20
2019-05-15T14:28:08.844Z,22.60
2019-05-15T14:30:37.935Z,22.90
2019-05-15T14:33:08.485Z,23.40
2019-05-15T14:35:38.009Z,22.40
2019-05-15T14:38:10.088Z,23.00
2019-05-15T14:40:37.549Z,22.60
2019-05-15T14:43:08.961Z,22.60
2019-05-15T14:45:38.628Z,22.90
2019-05-15T14:48:08.841Z,23.50
2019-05-15T14:50:38.444Z,23.30
2019-05-15T14:53:09.553Z,23.60
2019-05-15T14:55:44.095Z,23.10
2019-05-15T14:58:08.648Z,23.60
2019-05-15T15:00:41.084Z,23.20
2019-05-15T15:03:09.824Z,23.40
2019-05-15T15:05:38.825Z,23.20
2019-05-15T15:08:20.345Z,23.30
2019-05-15T15:10:38.632Z,21.40
2019-05-15T15:13:09.243Z,21.90
2019-05-15T15:15:38.162Z,22.30
2019-05-15T15:18:08.265Z,22.70
2019-05-15T15:20:38.123Z,22.50
2019-05-15T15:23:08.589Z,22.30
2019-05-15T15:25:39.778Z,21.80
2019-05-15T15:28:08.582Z,21.20
2019-05-15T15:30:38.499Z,21.70
2019-05-15T15:33:08.539Z,21.80
2019-05-15T15:35:38.353Z,21.60
2019-05-15T15:38:12.700Z,21.80
2019-05-15T15:40:38.901Z,22.10
2019-05-15T15:43:09.371Z,22.40
2019-05-15T15:45:39.335Z,22.30
2019-05-15T15:48:08.607Z,22.60
2019-05-15T15:50:38.299Z,23.20
2019-05-15T15:53:08.814Z,23.00
2019-05-15T15:55:38.551Z,23.10
2019-05-15T15:58:08.841Z,22.50
2019-05-15T16:00:38.497Z,22.30
2019-05-15T16:03:08.478Z,22.50
2019-05-15T16:05:38.444Z,22.80
2019-05-15T16:08:10.414Z,23.40
2019-05-15T16:10:39.135Z,23.10
2019-05-15T16:13:09.204Z,22.80
2019-05-15T16:15:38.627Z,22.20
2019-05-15T16:18:08.924Z,22.80
2019-05-15T16:20:39.808Z,22.50
2019-05-15T16:23:08.945Z,21.00
2019-05-15T16:25:38.543Z,20.40
2019-05-15T16:28:08.773Z,20.30
2019-05-15T16:30:50.354Z,19.70
2019-05-15T16:33:09.701Z,19.50
2019-05-15T16:35:38.811Z,19.20
2019-05-15T16:38:09.334Z,18.40
2019-05-15T16:40:38.414Z,18.20
2019-05-15T16:43:07.287Z,18.00
2019-05-15T16:45:38.491Z,17.80
2019-05-15T16:48:09.472Z,18.20
2019-05-15T16:50:38.319Z,17.90
2019-05-15T16:53:09.142Z,17.00
2019-05-15T16:55:38.442Z,17.20
2019-05-15T16:58:09.318Z,17.50
2019-05-15T17:00:38.516Z,18.20
2019-05-15T17:03:14.413Z,18.10
2019-05-15T17:05:38.775Z,18.60
2019-05-15T17:08:09.057Z,18.80
2019-05-15T17:10:38.759Z,18.70
2019-05-15T17:13:08.728Z,18.90
2019-05-15T17:15:38.419Z,19.10
2019-05-15T17:18:08.909Z,20.00
2019-05-15T17:20:37.857Z,20.30
2019-05-15T17:23:08.620Z,20.60
2019-05-15T17:25:38.246Z,21.20
2019-05-15T17:28:09.168Z,21.60
2019-05-15T17:30:38.247Z,22.00
2019-05-15T17:33:07.455Z,22.20
2019-05-15T17:35:38.062Z,22.70
2019-05-15T17:38:06.525Z,23.10
2019-05-15T17:40:37.438Z,23.60
2019-05-15T17:43:05.724Z,23.80
2019-05-15T17:45:34.799Z,23.90
2019-05-15T17:48:03.445Z,23.80
2019-05-15T17:50:45.038Z,24.10
2019-05-15T17:53:02.565Z,24.70
2019-05-15T17:55:31.305Z,24.60
2019-05-15T17:58:01.183Z,24.30
2019-05-15T18:00:30.469Z,25.00
2019-05-15T18:02:59.384Z,25.30
2019-05-15T18:05:28.440Z,25.30
2019-05-15T18:07:58.414Z,25.50
2019-05-15T18:10:27.985Z,25.60
2019-05-15T18:12:58.355Z,25.70
2019-05-15T18:15:27.393Z,25.70
2019-05-15T18:17:58.955Z,25.60
2019-05-15T18:20:29.851Z,25.80
2019-05-15T18:22:59.194Z,26.20
2019-05-15T18:25:28.258Z,26.50
2019-05-15T18:27:59.228Z,26.60
2019-05-15T18:30:28.120Z,26.80
2019-05-15T18:32:58.721Z,27.10
2019-05-15T18:35:29.539Z,27.20
2019-05-15T18:37:59.081Z,26.80
2019-05-15T18:40:28.226Z,26.60
2019-05-15T18:42:59.294Z,27.10
2019-05-15T18:45:29.059Z,27.30
2019-05-15T18:47:58.647Z,27.40
2019-05-15T18:50:28.384Z,27.60
2019-05-15T18:52:58.355Z,27.70
2019-05-15T18:55:27.500Z,27.90
2019-05-15T18:57:58.308Z,27.80
2019-05-15T19:00:29.183Z,28.10
2019-05-15T19:02:59.490Z,28.30
2019-05-15T19:05:28.104Z,28.40
2019-05-15T19:07:57.920Z,28.60
2019-05-15T19:10:28.230Z,28.80
2019-05-15T19:12:58.257Z,28.90
2019-05-15T19:15:28.635Z,29.00
2019-05-15T19:17:58.573Z,29.20
2019-05-15T19:20:28.099Z,29.50
2019-05-15T19:22:59.012Z,29.70
2019-05-15T19:25:28.650Z,29.80
2019-05-15T19:27:57.821Z,30.00
2019-05-15T19:30:28.776Z,30.30
2019-05-15T19:32:58.601Z,30.50
2019-05-15T19:35:28.114Z,31.30
2019-05-15T19:37:58.512Z,31.30
2019-05-15T19:40:28.394Z,31.20
2019-05-15T19:42:59.019Z,31.10
2019-05-15T19:45:28.329Z,31.50
2019-05-15T19:47:58.710Z,31.80
2019-05-15T19:50:28.799Z,32.30
2019-05-15T19:52:59.061Z,32.60
2019-05-15T19:55:28.294Z,32.70
2019-05-15T19:57:58.766Z,33.20
2019-05-15T20:00:28.573Z,33.80
2019-05-15T20:02:58.098Z,34.00
2019-05-15T20:05:29.014Z,33.80
2019-05-15T20:07:58.874Z,33.30
2019-05-15T20:10:29.302Z,33.40
2019-05-15T20:12:59.763Z,34.00
2019-05-15T20:15:28.780Z,34.10
2019-05-15T20:17:58.065Z,34.60
2019-05-15T20:20:28.364Z,34.70
2019-05-15T20:22:59.816Z,35.00
2019-05-15T20:25:28.358Z,35.20
2019-05-15T20:27:57.117Z,35.30
2019-05-15T20:30:28.387Z,35.50
2019-05-15T20:32:58.369Z,36.50
2019-05-15T20:35:28.275Z,35.60
2019-05-15T20:37:58.139Z,35.30
2019-05-15T20:40:27.195Z,35.90
2019-05-15T20:42:55.910Z,36.30
2019-05-15T20:45:24.663Z,36.40
2019-05-15T20:47:53.408Z,36.70
2019-05-15T20:50:22.191Z,37.30
2019-05-15T20:52:50.900Z,37.30
2019-05-15T20:55:19.648Z,37.50
2019-05-15T20:57:50.516Z,37.50
2019-05-15T21:00:19.554Z,37.30
2019-05-15T21:02:49.290Z,37.50
2019-05-15T21:05:18.882Z,37.50
2019-05-15T21:07:49.327Z,37.60
2019-05-15T21:10:21.532Z,37.70
2019-05-15T21:12:51.712Z,37.90
2019-05-15T21:15:21.711Z,38.20
2019-05-15T21:17:57.561Z,37.90
2019-05-15T21:20:22.456Z,38.20
2019-05-15T21:22:52.094Z,38.50
2019-05-15T21:25:22.418Z,38.60
2019-05-15T21:27:52.921Z,38.90
2019-05-15T21:30:22.808Z,39.00
2019-05-15T21:32:53.170Z,39.10
2019-05-15T21:35:23.001Z,39.30
2019-05-15T21:37:52.516Z,39.40
2019-05-15T21:40:22.781Z,39.20
2019-05-15T21:42:53.239Z,39.00
2019-05-15T21:45:22.754Z,39.30
2019-05-15T21:47:52.274Z,39.50
2019-05-15T21:50:22.327Z,39.90
2019-05-15T21:52:52.177Z,39.80
2019-05-15T21:55:21.358Z,39.60
2019-05-15T21:57:50.872Z,39.80
2019-05-15T22:00:30.744Z,39.40
2019-05-15T22:03:00.310Z,39.80
2019-05-15T22:05:31.126Z,40.20
2019-05-15T22:08:01.516Z,40.20
2019-05-15T22:10:31.913Z,40.10
2019-05-15T22:13:02.599Z,39.90
2019-05-15T22:15:32.970Z,39.90
2019-05-15T22:18:02.576Z,39.90
2019-05-15T22:20:31.468Z,40.70
2019-05-15T22:23:00.172Z,40.70
2019-05-15T22:25:28.908Z,40.70
2019-05-15T22:27:58.081Z,40.70
2019-05-15T22:30:29.990Z,40.80
2019-05-15T22:32:58.740Z,41.10
2019-05-15T22:35:29.354Z,41.50
2019-05-15T22:37:58.518Z,41.90
2019-05-15T22:40:29.041Z,42.10
2019-05-15T22:42:59.273Z,41.90
2019-05-15T22:45:28.771Z,41.80
2019-05-15T22:47:58.555Z,41.90
2019-05-15T22:50:28.145Z,42.20
2019-05-15T22:52:58.642Z,42.50
2019-05-15T22:55:28.994Z,42.40
2019-05-15T22:57:58.675Z,43.10
2019-05-15T23:00:28.924Z,43.70
2019-05-15T23:02:58.281Z,43.50
2019-05-15T23:05:30.997Z,43.30
2019-05-15T23:07:58.914Z,43.40
2019-05-15T23:10:29.249Z,43.50
2019-05-15T23:12:58.556Z,43.40
2019-05-15T23:15:28.077Z,43.70
2019-05-15T23:17:58.340Z,43.70
2019-05-15T23:20:28.559Z,44.00
2019-05-15T23:22:58.672Z,43.90
2019-05-15T23:25:29.055Z,44.10
2019-05-15T23:27:58.474Z,44.20
2019-05-15T23:30:28.762Z,44.10
2019-05-15T23:32:58.428Z,44.30
2019-05-15T23:35:35.417Z,44.60
2019-05-15T23:37:58.354Z,44.90
2019-05-15T23:40:28.857Z,44.80
2019-05-15T23:42:57.797Z,44.70
2019-05-15T23:45:28.844Z,44.90
2019-05-15T23:47:58.011Z,45.00
2019-05-15T23:50:28.831Z,45.20
2019-05-15T23:52:58.428Z,45.50
2019-05-15T23:55:28.523Z,45.70
2019-05-15T23:57:58.477Z,45.50
